sensor_id;sensor_type;location;lat;lon;timestamp;P1;durP1;ratioP1;P2;durP2;ratioP2
30335;SDS011;17142;47.990;7.846;2023-07-20T05:40:45;7.43;;;4.53;;
30335;SDS011;17142;47.990;7.846;2023-07-20T05:43:11;6.60;;;3.90;;
30335;SDS011;17142;47.990;7.846;2023-07-20T05:45:37;9.13;;;4.13;;
30335;SDS011;17142;47.990;7.846;2023-07-20T05:48:09;8.47;;;4.27;;
30335;SDS011;17142;47.990;7.846;2023-07-20T05:50:41;4.40;;;3.90;;
30335;SDS011;17142;47.990;7.846;2023-07-20T05:53:08;5.63;;;4.50;;
30335;SDS011;17142;47.990;7.846;2023-07-20T05:55:33;5.20;;;3.90;;
30335;SDS011;17142;47.990;7.846;2023-07-20T05:57:59;6.57;;;3.60;;
30335;SDS011;17142;47.990;7.846;2023-07-20T06:00:24;5.47;;;3.57;;
30335;SDS011;17142;47.990;7.846;2023-07-20T06:02:53;5.50;;;3.77;;
30335;SDS011;17142;47.990;7.846;2023-07-20T06:05:20;9.77;;;3.47;;
30335;SDS011;17142;47.990;7.846;2023-07-20T06:07:49;9.30;;;4.00;;
30335;SDS011;17142;47.990;7.846;2023-07-20T06:10:15;4.97;;;3.33;;
30335;SDS011;17142;47.990;7.846;2023-07-20T06:12:43;6.27;;;3.80;;
30335;SDS011;17142;47.990;7.846;2023-07-20T06:15:28;8.03;;;4.00;;
30335;SDS011;17142;47.990;7.846;2023-07-20T06:17:57;6.53;;;4.20;;
30335;SDS011;17142;47.990;7.846;2023-07-20T06:20:23;5.23;;;4.27;;
30335;SDS011;17142;47.990;7.846;2023-07-20T06:22:49;7.63;;;3.90;;
30335;SDS011;17142;47.990;7.846;2023-07-20T06:25:18;6.27;;;3.27;;
30335;SDS011;17142;47.990;7.846;2023-07-20T06:27:43;7.33;;;3.43;;
30335;SDS011;17142;47.990;7.846;2023-07-20T06:30:09;5.40;;;3.73;;
30335;SDS011;17142;47.990;7.846;2023-07-20T06:32:38;5.37;;;4.23;;
30335;SDS011;17142;47.990;7.846;2023-07-20T06:35:04;3.57;;;3.27;;
30335;SDS011;17142;47.990;7.846;2023-07-20T06:37:33;3.37;;;2.77;;
30335;SDS011;17142;47.990;7.846;2023-07-20T06:39:59;3.90;;;3.50;;
30335;SDS011;17142;47.990;7.846;2023-07-20T06:42:25;4.87;;;3.10;;
30335;SDS011;17142;47.990;7.846;2023-07-20T06:44:51;3.77;;;3.13;;
30335;SDS011;17142;47.990;7.846;2023-07-20T06:47:16;12.93;;;4.47;;
30335;SDS011;17142;47.990;7.846;2023-07-20T06:49:44;4.00;;;3.00;;
30335;SDS011;17142;47.990;7.846;2023-07-20T06:52:10;7.13;;;3.27;;
30335;SDS011;17142;47.990;7.846;2023-07-20T06:54:36;4.43;;;2.93;;
30335;SDS011;17142;47.990;7.846;2023-07-20T06:57:01;3.53;;;2.90;;
30335;SDS011;17142;47.990;7.846;2023-07-20T06:59:27;4.67;;;3.13;;
30335;SDS011;17142;47.990;7.846;2023-07-20T07:01:55;3.97;;;3.13;;
30335;SDS011;17142;47.990;7.846;2023-07-20T07:04:21;4.70;;;3.10;;
30335;SDS011;17142;47.990;7.846;2023-07-20T07:06:47;5.33;;;2.70;;
30335;SDS011;17142;47.990;7.846;2023-07-20T07:09:13;4.57;;;3.30;;
30335;SDS011;17142;47.990;7.846;2023-07-20T07:11:43;5.00;;;4.07;;
30335;SDS011;17142;47.990;7.846;2023-07-20T07:14:09;5.87;;;3.60;;
30335;SDS011;17142;47.990;7.846;2023-07-20T07:16:35;5.00;;;2.90;;
30335;SDS011;17142;47.990;7.846;2023-07-20T07:19:03;4.07;;;3.10;;
30335;SDS011;17142;47.990;7.846;2023-07-20T07:21:32;3.93;;;3.60;;
30335;SDS011;17142;47.990;7.846;2023-07-20T07:23:58;4.80;;;3.17;;
30335;SDS011;17142;47.990;7.846;2023-07-20T07:26:24;4.63;;;3.80;;
30335;SDS011;17142;47.990;7.846;2023-07-20T07:28:50;5.10;;;3.70;;
30335;SDS011;17142;47.990;7.846;2023-07-20T07:31:18;6.63;;;3.87;;
30335;SDS011;17142;47.990;7.846;2023-07-20T07:33:44;4.10;;;2.80;;
30335;SDS011;17142;47.990;7.846;2023-07-20T07:36:12;9.43;;;3.23;;
30335;SDS011;17142;47.990;7.846;2023-07-20T07:38:38;4.10;;;2.90;;
30335;SDS011;17142;47.990;7.846;2023-07-20T07:41:04;3.80;;;3.40;;
30335;SDS011;17142;47.990;7.846;2023-07-20T07:43:30;4.20;;;2.80;;
30335;SDS011;17142;47.990;7.846;2023-07-20T07:45:55;4.47;;;2.97;;
30335;SDS011;17142;47.990;7.846;2023-07-20T07:48:24;4.17;;;2.60;;
30335;SDS011;17142;47.990;7.846;2023-07-20T07:50:50;3.83;;;2.80;;
30335;SDS011;17142;47.990;7.846;2023-07-20T07:53:16;5.07;;;3.33;;
30335;SDS011;17142;47.990;7.846;2023-07-20T07:55:45;6.20;;;3.07;;
30335;SDS011;17142;47.990;7.846;2023-07-20T07:58:12;3.53;;;2.80;;
30335;SDS011;17142;47.990;7.846;2023-07-20T08:00:38;4.73;;;2.93;;
30335;SDS011;17142;47.990;7.846;2023-07-20T08:03:05;6.43;;;3.50;;
30335;SDS011;17142;47.990;7.846;2023-07-20T08:05:31;4.93;;;3.27;;
30335;SDS011;17142;47.990;7.846;2023-07-20T08:07:58;4.53;;;2.60;;
30335;SDS011;17142;47.990;7.846;2023-07-20T08:10:23;3.03;;;2.60;;
30335;SDS011;17142;47.990;7.846;2023-07-20T08:12:50;2.83;;;2.57;;
30335;SDS011;17142;47.990;7.846;2023-07-20T08:15:16;8.03;;;3.17;;
30335;SDS011;17142;47.990;7.846;2023-07-20T08:17:42;6.40;;;3.40;;
30335;SDS011;17142;47.990;7.846;2023-07-20T08:20:09;3.90;;;3.10;;
30335;SDS011;17142;47.990;7.846;2023-07-20T08:22:38;3.30;;;2.93;;
30335;SDS011;17142;47.990;7.846;2023-07-20T08:25:05;6.50;;;3.17;;
30335;SDS011;17142;47.990;7.846;2023-07-20T08:27:31;5.60;;;3.33;;
30335;SDS011;17142;47.990;7.846;2023-07-20T08:29:57;10.40;;;3.90;;
30335;SDS011;17142;47.990;7.846;2023-07-20T08:32:22;3.23;;;2.70;;
30335;SDS011;17142;47.990;7.846;2023-07-20T08:34:50;3.53;;;3.03;;
30335;SDS011;17142;47.990;7.846;2023-07-20T08:37:19;4.70;;;3.20;;
30335;SDS011;17142;47.990;7.846;2023-07-20T08:39:47;6.20;;;3.10;;
30335;SDS011;17142;47.990;7.846;2023-07-20T08:42:13;3.23;;;2.40;;
30335;SDS011;17142;47.990;7.846;2023-07-20T08:44:45;6.90;;;3.20;;
30335;SDS011;17142;47.990;7.846;2023-07-20T08:47:13;7.20;;;2.80;;
30335;SDS011;17142;47.990;7.846;2023-07-20T08:49:41;6.63;;;3.00;;
30335;SDS011;17142;47.990;7.846;2023-07-20T08:52:09;5.50;;;3.03;;
30335;SDS011;17142;47.990;7.846;2023-07-20T08:54:36;5.40;;;2.47;;
30335;SDS011;17142;47.990;7.846;2023-07-20T08:57:03;4.23;;;2.50;;
30335;SDS011;17142;47.990;7.846;2023-07-20T08:59:30;6.60;;;3.30;;
30335;SDS011;17142;47.990;7.846;2023-07-20T09:01:58;4.17;;;2.63;;
30335;SDS011;17142;47.990;7.846;2023-07-20T09:04:24;3.77;;;1.70;;
30335;SDS011;17142;47.990;7.846;2023-07-20T09:06:50;5.97;;;2.70;;
30335;SDS011;17142;47.990;7.846;2023-07-20T09:09:19;2.80;;;2.37;;
30335;SDS011;17142;47.990;7.846;2023-07-20T09:11:48;5.07;;;2.40;;
30335;SDS011;17142;47.990;7.846;2023-07-20T09:14:14;2.90;;;2.13;;
30335;SDS011;17142;47.990;7.846;2023-07-20T09:16:49;5.17;;;2.63;;
30335;SDS011;17142;47.990;7.846;2023-07-20T09:19:18;2.83;;;2.00;;
30335;SDS011;17142;47.990;7.846;2023-07-20T09:21:44;2.50;;;1.80;;
30335;SDS011;17142;47.990;7.846;2023-07-20T09:24:12;4.10;;;2.60;;
30335;SDS011;17142;47.990;7.846;2023-07-20T09:26:43;3.00;;;2.13;;
30335;SDS011;17142;47.990;7.846;2023-07-20T09:29:13;2.30;;;2.00;;
30335;SDS011;17142;47.990;7.846;2023-07-20T09:31:39;2.20;;;1.90;;
30335;SDS011;17142;47.990;7.846;2023-07-20T09:34:05;2.20;;;1.97;;
30335;SDS011;17142;47.990;7.846;2023-07-20T09:36:35;3.00;;;2.50;;
30335;SDS011;17142;47.990;7.846;2023-07-20T09:39:02;4.60;;;2.40;;
30335;SDS011;17142;47.990;7.846;2023-07-20T09:41:29;3.90;;;2.20;;
30335;SDS011;17142;47.990;7.846;2023-07-20T09:44:05;4.27;;;2.40;;
30335;SDS011;17142;47.990;7.846;2023-07-20T09:46:44;4.40;;;2.53;;
30335;SDS011;17142;47.990;7.846;2023-07-20T09:49:16;6.40;;;3.27;;
30335;SDS011;17142;47.990;7.846;2023-07-20T09:51:45;3.23;;;2.80;;
30335;SDS011;17142;47.990;7.846;2023-07-20T09:54:13;3.60;;;2.00;;
30335;SDS011;17142;47.990;7.846;2023-07-20T09:56:40;5.10;;;2.53;;
30335;SDS011;17142;47.990;7.846;2023-07-20T09:59:09;3.83;;;2.53;;
30335;SDS011;17142;47.990;7.846;2023-07-20T10:01:34;5.50;;;2.60;;
30335;SDS011;17142;47.990;7.846;2023-07-20T10:04:03;7.37;;;2.57;;
30335;SDS011;17142;47.990;7.846;2023-07-20T10:06:32;3.40;;;2.23;;
30335;SDS011;17142;47.990;7.846;2023-07-20T10:09:02;2.20;;;1.90;;
30335;SDS011;17142;47.990;7.846;2023-07-20T10:11:32;3.30;;;2.67;;
30335;SDS011;17142;47.990;7.846;2023-07-20T10:14:00;5.13;;;2.00;;
30335;SDS011;17142;47.990;7.846;2023-07-20T10:16:32;2.80;;;2.20;;
30335;SDS011;17142;47.990;7.846;2023-07-20T10:19:03;4.60;;;2.57;;
30335;SDS011;17142;47.990;7.846;2023-07-20T10:21:33;2.50;;;2.10;;
30335;SDS011;17142;47.990;7.846;2023-07-20T10:24:05;3.63;;;2.07;;
30335;SDS011;17142;47.990;7.846;2023-07-20T10:26:34;3.60;;;2.13;;
30335;SDS011;17142;47.990;7.846;2023-07-20T10:29:00;3.60;;;2.27;;
30335;SDS011;17142;47.990;7.846;2023-07-20T10:31:29;3.50;;;2.30;;
30335;SDS011;17142;47.990;7.846;2023-07-20T10:33:56;9.07;;;2.80;;
30335;SDS011;17142;47.990;7.846;2023-07-20T10:36:25;3.17;;;2.03;;
30335;SDS011;17142;47.990;7.846;2023-07-20T10:38:53;2.60;;;2.03;;
30335;SDS011;17142;47.990;7.846;2023-07-20T10:41:21;3.67;;;1.93;;
30335;SDS011;17142;47.990;7.846;2023-07-20T10:43:49;4.17;;;2.00;;
30335;SDS011;17142;47.990;7.846;2023-07-20T10:49:13;4.40;;;1.90;;
30335;SDS011;17142;47.990;7.846;2023-07-20T10:51:42;5.13;;;2.03;;
30335;SDS011;17142;47.990;7.846;2023-07-20T10:54:09;2.90;;;1.63;;
30335;SDS011;17142;47.990;7.846;2023-07-20T10:56:55;4.87;;;2.30;;
30335;SDS011;17142;47.990;7.846;2023-07-20T10:59:46;4.10;;;1.80;;
30335;SDS011;17142;47.990;7.846;2023-07-20T11:02:12;2.60;;;2.00;;
30335;SDS011;17142;47.990;7.846;2023-07-20T11:04:44;4.53;;;2.20;;
30335;SDS011;17142;47.990;7.846;2023-07-20T11:07:36;3.30;;;2.03;;
30335;SDS011;17142;47.990;7.846;2023-07-20T11:10:13;5.47;;;2.90;;
30335;SDS011;17142;47.990;7.846;2023-07-20T11:13:02;2.90;;;1.80;;
30335;SDS011;17142;47.990;7.846;2023-07-20T11:16:09;4.00;;;2.57;;
30335;SDS011;17142;47.990;7.846;2023-07-20T11:18:34;5.27;;;2.50;;
30335;SDS011;17142;47.990;7.846;2023-07-20T11:21:06;2.47;;;1.73;;
30335;SDS011;17142;47.990;7.846;2023-07-20T11:23:34;7.73;;;3.10;;
30335;SDS011;17142;47.990;7.846;2023-07-20T11:26:06;7.80;;;2.70;;
30335;SDS011;17142;47.990;7.846;2023-07-20T11:28:34;9.50;;;2.47;;
30335;SDS011;17142;47.990;7.846;2023-07-20T11:31:00;4.03;;;2.67;;
30335;SDS011;17142;47.990;7.846;2023-07-20T11:33:26;3.77;;;2.30;;
30335;SDS011;17142;47.990;7.846;2023-07-20T11:35:51;4.37;;;2.23;;
30335;SDS011;17142;47.990;7.846;2023-07-20T11:38:20;4.57;;;2.07;;
30335;SDS011;17142;47.990;7.846;2023-07-20T11:40:48;5.93;;;3.27;;
30335;SDS011;17142;47.990;7.846;2023-07-20T11:43:15;3.40;;;2.00;;
30335;SDS011;17142;47.990;7.846;2023-07-20T11:45:41;2.63;;;1.83;;
30335;SDS011;17142;47.990;7.846;2023-07-20T11:48:06;2.20;;;1.80;;
30335;SDS011;17142;47.990;7.846;2023-07-20T11:50:34;3.43;;;2.13;;
30335;SDS011;17142;47.990;7.846;2023-07-20T11:53:03;4.20;;;2.20;;
30335;SDS011;17142;47.990;7.846;2023-07-20T11:55:29;2.40;;;2.20;;
30335;SDS011;17142;47.990;7.846;2023-07-20T11:58:05;5.43;;;2.53;;
30335;SDS011;17142;47.990;7.846;2023-07-20T12:00:32;2.90;;;1.80;;
30335;SDS011;17142;47.990;7.846;2023-07-20T12:02:59;5.37;;;2.37;;
30335;SDS011;17142;47.990;7.846;2023-07-20T12:05:25;3.60;;;2.03;;
30335;SDS011;17142;47.990;7.846;2023-07-20T12:07:54;4.07;;;2.83;;
30335;SDS011;17142;47.990;7.846;2023-07-20T12:10:26;2.87;;;1.90;;
30335;SDS011;17142;47.990;7.846;2023-07-20T12:12:53;2.97;;;1.67;;
30335;SDS011;17142;47.990;7.846;2023-07-20T12:15:24;3.03;;;1.90;;
30335;SDS011;17142;47.990;7.846;2023-07-20T12:18:00;3.83;;;2.37;;
30335;SDS011;17142;47.990;7.846;2023-07-20T12:20:33;2.20;;;2.00;;
30335;SDS011;17142;47.990;7.846;2023-07-20T12:23:02;3.20;;;2.00;;
30335;SDS011;17142;47.990;7.846;2023-07-20T12:25:33;2.70;;;2.13;;
30335;SDS011;17142;47.990;7.846;2023-07-20T12:28:09;4.70;;;2.03;;
30335;SDS011;17142;47.990;7.846;2023-07-20T12:30:39;3.00;;;2.00;;
30335;SDS011;17142;47.990;7.846;2023-07-20T12:33:06;3.13;;;2.47;;
30335;SDS011;17142;47.990;7.846;2023-07-20T12:35:32;3.20;;;1.93;;
30335;SDS011;17142;47.990;7.846;2023-07-20T12:38:03;4.90;;;1.93;;
30335;SDS011;17142;47.990;7.846;2023-07-20T12:40:29;2.83;;;2.00;;
30335;SDS011;17142;47.990;7.846;2023-07-20T12:42:58;2.50;;;1.73;;
30335;SDS011;17142;47.990;7.846;2023-07-20T12:45:24;4.73;;;1.87;;
30335;SDS011;17142;47.990;7.846;2023-07-20T12:47:49;3.77;;;2.63;;
30335;SDS011;17142;47.990;7.846;2023-07-20T12:50:18;4.60;;;2.13;;
30335;SDS011;17142;47.990;7.846;2023-07-20T12:52:43;3.47;;;2.37;;
30335;SDS011;17142;47.990;7.846;2023-07-20T12:55:09;3.90;;;2.17;;
30335;SDS011;17142;47.990;7.846;2023-07-20T12:57:40;2.57;;;2.07;;
30335;SDS011;17142;47.990;7.846;2023-07-20T13:00:06;2.93;;;2.23;;
30335;SDS011;17142;47.990;7.846;2023-07-20T13:02:34;2.80;;;2.20;;
30335;SDS011;17142;47.990;7.846;2023-07-20T13:05:03;2.60;;;2.17;;
30335;SDS011;17142;47.990;7.846;2023-07-20T13:07:37;3.20;;;1.97;;
30335;SDS011;17142;47.990;7.846;2023-07-20T13:10:04;2.20;;;2.00;;
30335;SDS011;17142;47.990;7.846;2023-07-20T13:12:31;3.63;;;1.93;;
30335;SDS011;17142;47.990;7.846;2023-07-20T13:15:01;2.67;;;2.23;;
30335;SDS011;17142;47.990;7.846;2023-07-20T13:17:33;2.80;;;1.90;;
30335;SDS011;17142;47.990;7.846;2023-07-20T13:19:59;2.10;;;1.90;;
30335;SDS011;17142;47.990;7.846;2023-07-20T13:22:24;5.90;;;2.90;;
30335;SDS011;17142;47.990;7.846;2023-07-20T13:24:50;2.70;;;2.50;;
30335;SDS011;17142;47.990;7.846;2023-07-20T13:27:18;6.07;;;2.27;;
30335;SDS011;17142;47.990;7.846;2023-07-20T13:29:46;4.53;;;1.70;;
30335;SDS011;17142;47.990;7.846;2023-07-20T13:32:13;3.90;;;2.10;;
30335;SDS011;17142;47.990;7.846;2023-07-20T13:34:44;2.60;;;2.00;;
30335;SDS011;17142;47.990;7.846;2023-07-20T13:37:10;5.30;;;2.97;;
30335;SDS011;17142;47.990;7.846;2023-07-20T13:39:37;3.80;;;2.90;;
30335;SDS011;17142;47.990;7.846;2023-07-20T13:42:03;2.13;;;1.73;;
30335;SDS011;17142;47.990;7.846;2023-07-20T13:44:33;2.63;;;2.43;;
30335;SDS011;17142;47.990;7.846;2023-07-20T13:47:01;2.83;;;2.20;;
30335;SDS011;17142;47.990;7.846;2023-07-20T13:49:27;3.93;;;2.30;;
30335;SDS011;17142;47.990;7.846;2023-07-20T13:51:53;3.17;;;2.07;;
30335;SDS011;17142;47.990;7.846;2023-07-20T13:54:18;2.00;;;1.90;;
30335;SDS011;17142;47.990;7.846;2023-07-20T13:56:44;4.00;;;2.73;;
30335;SDS011;17142;47.990;7.846;2023-07-20T13:59:10;3.60;;;2.33;;
30335;SDS011;17142;47.990;7.846;2023-07-20T14:01:38;4.27;;;2.00;;
30335;SDS011;17142;47.990;7.846;2023-07-20T14:04:08;3.03;;;2.10;;
30335;SDS011;17142;47.990;7.846;2023-07-20T14:06:36;3.47;;;2.20;;
30335;SDS011;17142;47.990;7.846;2023-07-20T14:09:02;1.90;;;1.70;;
30335;SDS011;17142;47.990;7.846;2023-07-20T14:11:30;3.57;;;2.13;;
30335;SDS011;17142;47.990;7.846;2023-07-20T14:13:56;2.90;;;2.07;;
30335;SDS011;17142;47.990;7.846;2023-07-20T14:16:23;2.80;;;2.43;;
30335;SDS011;17142;47.990;7.846;2023-07-20T14:18:49;2.67;;;2.47;;
30335;SDS011;17142;47.990;7.846;2023-07-20T14:21:16;2.50;;;1.70;;
30335;SDS011;17142;47.990;7.846;2023-07-20T14:23:44;3.00;;;1.77;;
30335;SDS011;17142;47.990;7.846;2023-07-20T14:26:10;2.23;;;1.97;;
30335;SDS011;17142;47.990;7.846;2023-07-20T14:28:36;7.70;;;2.23;;
30335;SDS011;17142;47.990;7.846;2023-07-20T14:31:03;5.83;;;1.80;;
30335;SDS011;17142;47.990;7.846;2023-07-20T14:33:28;3.20;;;1.70;;
30335;SDS011;17142;47.990;7.846;2023-07-20T14:35:54;2.00;;;1.80;;
30335;SDS011;17142;47.990;7.846;2023-07-20T14:38:20;3.10;;;2.03;;
30335;SDS011;17142;47.990;7.846;2023-07-20T14:40:45;3.77;;;2.80;;
30335;SDS011;17142;47.990;7.846;2023-07-20T14:43:13;3.53;;;2.63;;
30335;SDS011;17142;47.990;7.846;2023-07-20T14:45:42;2.30;;;2.10;;
30335;SDS011;17142;47.990;7.846;2023-07-20T14:48:08;3.10;;;2.30;;
30335;SDS011;17142;47.990;7.846;2023-07-20T14:50:34;2.87;;;1.77;;
30335;SDS011;17142;47.990;7.846;2023-07-20T14:53:02;5.10;;;1.83;;
30335;SDS011;17142;47.990;7.846;2023-07-20T14:55:28;3.13;;;2.20;;
30335;SDS011;17142;47.990;7.846;2023-07-20T14:57:56;2.43;;;1.70;;
30335;SDS011;17142;47.990;7.846;2023-07-20T15:00:21;2.83;;;2.50;;
30335;SDS011;17142;47.990;7.846;2023-07-20T15:02:51;2.43;;;2.10;;
30335;SDS011;17142;47.990;7.846;2023-07-20T15:05:21;3.40;;;2.00;;
30335;SDS011;17142;47.990;7.846;2023-07-20T15:07:48;2.87;;;2.27;;
30335;SDS011;17142;47.990;7.846;2023-07-20T15:10:15;2.60;;;2.40;;
30335;SDS011;17142;47.990;7.846;2023-07-20T15:12:41;3.17;;;1.87;;
30335;SDS011;17142;47.990;7.846;2023-07-20T15:17:37;4.50;;;1.77;;
30335;SDS011;17142;47.990;7.846;2023-07-20T15:20:05;3.57;;;2.33;;
30335;SDS011;17142;47.990;7.846;2023-07-20T15:22:32;2.23;;;1.70;;
30335;SDS011;17142;47.990;7.846;2023-07-20T15:24:59;3.53;;;2.63;;
30335;SDS011;17142;47.990;7.846;2023-07-20T15:27:25;2.23;;;2.03;;
30335;SDS011;17142;47.990;7.846;2023-07-20T15:29:51;3.83;;;2.40;;
30335;SDS011;17142;47.990;7.846;2023-07-20T15:32:17;3.80;;;1.83;;
30335;SDS011;17142;47.990;7.846;2023-07-20T15:34:43;3.00;;;1.97;;
30335;SDS011;17142;47.990;7.846;2023-07-20T15:37:11;2.30;;;1.80;;
30335;SDS011;17142;47.990;7.846;2023-07-20T15:39:37;2.83;;;1.97;;
30335;SDS011;17142;47.990;7.846;2023-07-20T15:42:03;5.67;;;2.17;;
30335;SDS011;17142;47.990;7.846;2023-07-20T15:44:31;4.03;;;2.03;;
30335;SDS011;17142;47.990;7.846;2023-07-20T15:46:57;3.80;;;1.83;;
30335;SDS011;17142;47.990;7.846;2023-07-20T15:49:23;3.00;;;2.07;;
30335;SDS011;17142;47.990;7.846;2023-07-20T15:51:52;4.13;;;2.00;;
30335;SDS011;17142;47.990;7.846;2023-07-20T15:54:18;5.60;;;1.93;;
30335;SDS011;17142;47.990;7.846;2023-07-20T15:56:46;3.77;;;2.30;;
30335;SDS011;17142;47.990;7.846;2023-07-20T15:59:14;2.37;;;1.90;;
30335;SDS011;17142;47.990;7.846;2023-07-20T16:01:41;4.53;;;2.20;;
30335;SDS011;17142;47.990;7.846;2023-07-20T16:04:09;3.80;;;1.30;;
30335;SDS011;17142;47.990;7.846;2023-07-20T16:06:36;7.70;;;1.90;;
30335;SDS011;17142;47.990;7.846;2023-07-20T16:09:04;2.63;;;1.83;;
30335;SDS011;17142;47.990;7.846;2023-07-20T16:11:31;3.10;;;1.50;;
30335;SDS011;17142;47.990;7.846;2023-07-20T16:13:57;2.93;;;2.03;;
30335;SDS011;17142;47.990;7.846;2023-07-20T16:16:22;1.77;;;1.50;;
30335;SDS011;17142;47.990;7.846;2023-07-20T16:18:48;2.37;;;2.13;;
30335;SDS011;17142;47.990;7.846;2023-07-20T16:21:15;2.20;;;2.00;;
30335;SDS011;17142;47.990;7.846;2023-07-20T16:23:41;5.87;;;1.80;;
30335;SDS011;17142;47.990;7.846;2023-07-20T16:26:07;2.53;;;2.20;;
30335;SDS011;17142;47.990;7.846;2023-07-20T16:28:33;1.70;;;1.60;;
30335;SDS011;17142;47.990;7.846;2023-07-20T16:31:01;2.67;;;1.90;;
30335;SDS011;17142;47.990;7.846;2023-07-20T16:33:34;4.03;;;1.97;;
30335;SDS011;17142;47.990;7.846;2023-07-20T16:36:02;3.53;;;1.80;;
30335;SDS011;17142;47.990;7.846;2023-07-20T16:38:28;3.93;;;1.80;;
30335;SDS011;17142;47.990;7.846;2023-07-20T16:40:56;1.87;;;1.57;;
30335;SDS011;17142;47.990;7.846;2023-07-20T16:43:22;2.23;;;1.70;;
30335;SDS011;17142;47.990;7.846;2023-07-20T16:45:47;2.43;;;1.73;;
30335;SDS011;17142;47.990;7.846;2023-07-20T16:48:13;1.90;;;1.53;;
30335;SDS011;17142;47.990;7.846;2023-07-20T16:50:39;2.10;;;1.90;;
30335;SDS011;17142;47.990;7.846;2023-07-20T16:53:05;2.33;;;1.80;;
30335;SDS011;17142;47.990;7.846;2023-07-20T16:55:30;3.13;;;2.20;;
30335;SDS011;17142;47.990;7.846;2023-07-20T16:57:56;4.87;;;1.60;;
30335;SDS011;17142;47.990;7.846;2023-07-20T17:00:21;4.33;;;2.40;;
30335;SDS011;17142;47.990;7.846;2023-07-20T17:02:47;2.47;;;2.07;;
30335;SDS011;17142;47.990;7.846;2023-07-20T17:05:15;4.30;;;2.40;;
30335;SDS011;17142;47.990;7.846;2023-07-20T17:07:41;3.77;;;1.83;;
30335;SDS011;17142;47.990;7.846;2023-07-20T17:10:07;6.27;;;2.27;;
30335;SDS011;17142;47.990;7.846;2023-07-20T17:12:35;3.33;;;2.23;;
30335;SDS011;17142;47.990;7.846;2023-07-20T17:15:04;4.20;;;2.10;;
30335;SDS011;17142;47.990;7.846;2023-07-20T17:17:30;2.10;;;1.60;;
30335;SDS011;17142;47.990;7.846;2023-07-20T17:19:58;2.47;;;1.90;;
30335;SDS011;17142;47.990;7.846;2023-07-20T17:22:23;4.40;;;1.77;;
30335;SDS011;17142;47.990;7.846;2023-07-20T17:24:49;4.27;;;2.07;;
30335;SDS011;17142;47.990;7.846;2023-07-20T17:27:14;1.60;;;1.50;;
30335;SDS011;17142;47.990;7.846;2023-07-20T17:29:40;2.20;;;1.70;;
30335;SDS011;17142;47.990;7.846;2023-07-20T17:32:06;1.70;;;1.50;;
30335;SDS011;17142;47.990;7.846;2023-07-20T17:34:32;2.67;;;1.93;;
30335;SDS011;17142;47.990;7.846;2023-07-20T17:36:58;2.53;;;1.60;;
30335;SDS011;17142;47.990;7.846;2023-07-20T17:39:26;3.13;;;1.67;;
30335;SDS011;17142;47.990;7.846;2023-07-20T17:41:51;3.10;;;1.70;;
30335;SDS011;17142;47.990;7.846;2023-07-20T17:44:17;2.37;;;1.60;;
30335;SDS011;17142;47.990;7.846;2023-07-20T17:46:42;1.37;;;1.27;;
30335;SDS011;17142;47.990;7.846;2023-07-20T17:49:10;6.73;;;1.57;;
30335;SDS011;17142;47.990;7.846;2023-07-20T17:51:35;1.83;;;1.70;;
30335;SDS011;17142;47.990;7.846;2023-07-20T17:54:01;2.30;;;1.53;;
30335;SDS011;17142;47.990;7.846;2023-07-20T17:56:29;3.67;;;2.40;;
30335;SDS011;17142;47.990;7.846;2023-07-20T17:58:55;5.73;;;1.90;;
30335;SDS011;17142;47.990;7.846;2023-07-20T18:01:21;3.00;;;1.77;;
30335;SDS011;17142;47.990;7.846;2023-07-20T18:03:49;1.83;;;1.73;;
30335;SDS011;17142;47.990;7.846;2023-07-20T18:06:17;2.73;;;2.13;;
30335;SDS011;17142;47.990;7.846;2023-07-20T18:08:43;2.77;;;2.37;;
30335;SDS011;17142;47.990;7.846;2023-07-20T18:11:09;2.37;;;2.17;;
30335;SDS011;17142;47.990;7.846;2023-07-20T18:13:35;1.90;;;1.70;;
30335;SDS011;17142;47.990;7.846;2023-07-20T18:16:01;2.67;;;1.87;;
30335;SDS011;17142;47.990;7.846;2023-07-20T18:18:27;2.87;;;2.07;;
30335;SDS011;17142;47.990;7.846;2023-07-20T18:20:53;3.10;;;1.57;;
30335;SDS011;17142;47.990;7.846;2023-07-20T18:23:19;1.40;;;1.30;;
30335;SDS011;17142;47.990;7.846;2023-07-20T18:25:44;4.03;;;2.20;;
30335;SDS011;17142;47.990;7.846;2023-07-20T18:28:14;2.57;;;1.73;;
30335;SDS011;17142;47.990;7.846;2023-07-20T18:30:39;2.40;;;1.90;;
30335;SDS011;17142;47.990;7.846;2023-07-20T18:33:06;2.20;;;1.67;;
30335;SDS011;17142;47.990;7.846;2023-07-20T18:35:32;5.43;;;2.07;;
30335;SDS011;17142;47.990;7.846;2023-07-20T18:37:59;2.50;;;1.77;;
30335;SDS011;17142;47.990;7.846;2023-07-20T18:40:25;2.03;;;1.83;;
30335;SDS011;17142;47.990;7.846;2023-07-20T18:42:53;1.77;;;1.33;;
30335;SDS011;17142;47.990;7.846;2023-07-20T18:45:19;4.00;;;2.00;;
30335;SDS011;17142;47.990;7.846;2023-07-20T18:47:44;2.70;;;1.70;;
30335;SDS011;17142;47.990;7.846;2023-07-20T18:50:12;3.57;;;1.40;;
30335;SDS011;17142;47.990;7.846;2023-07-20T18:52:40;1.60;;;1.50;;
30335;SDS011;17142;47.990;7.846;2023-07-20T18:55:08;2.30;;;1.20;;
30335;SDS011;17142;47.990;7.846;2023-07-20T18:57:36;2.47;;;1.60;;
30335;SDS011;17142;47.990;7.846;2023-07-20T19:00:02;2.40;;;2.00;;
30335;SDS011;17142;47.990;7.846;2023-07-20T19:02:29;3.23;;;2.00;;
30335;SDS011;17142;47.990;7.846;2023-07-20T19:04:57;2.60;;;2.27;;
30335;SDS011;17142;47.990;7.846;2023-07-20T19:07:23;4.93;;;2.23;;
30335;SDS011;17142;47.990;7.846;2023-07-20T19:09:49;2.23;;;1.83;;
30335;SDS011;17142;47.990;7.846;2023-07-20T19:12:15;2.73;;;1.67;;
30335;SDS011;17142;47.990;7.846;2023-07-20T19:14:40;3.77;;;2.40;;
30335;SDS011;17142;47.990;7.846;2023-07-20T19:17:06;2.30;;;2.07;;
30335;SDS011;17142;47.990;7.846;2023-07-20T19:19:32;2.40;;;1.70;;
30335;SDS011;17142;47.990;7.846;2023-07-20T19:22:00;3.70;;;2.13;;
30335;SDS011;17142;47.990;7.846;2023-07-20T19:24:26;3.80;;;2.00;;
30335;SDS011;17142;47.990;7.846;2023-07-20T19:26:52;2.07;;;1.87;;
30335;SDS011;17142;47.990;7.846;2023-07-20T19:29:18;3.30;;;1.80;;
30335;SDS011;17142;47.990;7.846;2023-07-20T19:31:44;2.87;;;1.60;;
30335;SDS011;17142;47.990;7.846;2023-07-20T19:34:10;3.27;;;2.30;;
30335;SDS011;17142;47.990;7.846;2023-07-20T19:36:36;2.20;;;1.90;;
30335;SDS011;17142;47.990;7.846;2023-07-20T19:39:04;2.90;;;2.10;;
30335;SDS011;17142;47.990;7.846;2023-07-20T19:41:30;5.60;;;2.60;;
30335;SDS011;17142;47.990;7.846;2023-07-20T19:43:56;4.33;;;2.10;;
30335;SDS011;17142;47.990;7.846;2023-07-20T19:46:21;2.80;;;1.90;;
30335;SDS011;17142;47.990;7.846;2023-07-20T19:48:47;3.73;;;1.90;;
30335;SDS011;17142;47.990;7.846;2023-07-20T19:51:13;2.30;;;2.10;;
30335;SDS011;17142;47.990;7.846;2023-07-20T19:53:39;5.40;;;2.70;;
30335;SDS011;17142;47.990;7.846;2023-07-20T19:56:04;3.40;;;2.20;;
30335;SDS011;17142;47.990;7.846;2023-07-20T19:58:33;4.50;;;2.70;;
30335;SDS011;17142;47.990;7.846;2023-07-20T20:00:59;4.10;;;3.30;;
30335;SDS011;17142;47.990;7.846;2023-07-20T20:03:28;2.97;;;2.67;;
30335;SDS011;17142;47.990;7.846;2023-07-20T20:05:53;3.30;;;2.20;;
30335;SDS011;17142;47.990;7.846;2023-07-20T20:08:19;2.57;;;2.20;;
30335;SDS011;17142;47.990;7.846;2023-07-20T20:10:50;3.80;;;2.43;;
30335;SDS011;17142;47.990;7.846;2023-07-20T20:13:21;2.40;;;1.80;;
30335;SDS011;17142;47.990;7.846;2023-07-20T20:15:47;8.00;;;2.97;;
30335;SDS011;17142;47.990;7.846;2023-07-20T20:18:16;4.13;;;2.20;;
30335;SDS011;17142;47.990;7.846;2023-07-20T20:20:43;3.60;;;2.60;;
30335;SDS011;17142;47.990;7.846;2023-07-20T20:23:17;3.33;;;2.40;;
30335;SDS011;17142;47.990;7.846;2023-07-20T20:25:44;3.23;;;2.63;;
30335;SDS011;17142;47.990;7.846;2023-07-20T20:28:15;4.33;;;2.77;;
30335;SDS011;17142;47.990;7.846;2023-07-20T20:30:47;3.40;;;2.50;;
30335;SDS011;17142;47.990;7.846;2023-07-20T20:33:17;4.80;;;2.37;;
30335;SDS011;17142;47.990;7.846;2023-07-20T20:35:47;4.20;;;2.77;;